TVS246P LFBT-EPWA
Flight info
| Callsign | TVS246P |
|---|---|
| Flight time | N/A |
| Altitude | 40000 |
| Route | TOU DCT GAI DCT NINUN G53 MEZIN DCT OMASI N871 BERSU DCT SONOM/N0424F390 DCT LOKTA/N0428F400 N851 TEDGO/N0423F390 N869 RONIG Z35 ODOMO DCT DONAD DCT LEGAZ DCT LAGAR N871 MULZA |
| Aircraft | B738/M-SDFGHIJ1LORVWXYZ/LB1 |
Departure
| Time | 2026-04-24 12:17 |
|---|---|
| Airport | Tarbes-Lourdes-Pyrénées Airport (LFBT) |
Arrival
| Time | N/A |
|---|---|
| Airport | Warsaw Chopin Airport (EPWA) |
| Time | Latitude | Longitude | Altitude | Speed | Heading |
|---|---|---|---|---|---|
| 2026-04-24 11:09 | 43.18485 | 0.00365 | 1186 ft | 0 kts | 15° |
| 2026-04-24 12:07 | 43.18466 | 0.00358 | 1207 ft | 4 kts | 14° |
| 2026-04-24 12:07 | 43.18440 | 0.00348 | 1205 ft | 4 kts | 12° |
| 2026-04-24 12:08 | 43.18415 | 0.00348 | 1206 ft | 4 kts | 331° |
| 2026-04-24 12:08 | 43.18398 | 0.00371 | 1206 ft | 2 kts | 293° |
| 2026-04-24 12:08 | 43.18397 | 0.00374 | 1206 ft | 2 kts | 292° |
| 2026-04-24 12:10 | 43.18398 | 0.00373 | 1206 ft | 1 kts | 292° |
| 2026-04-24 12:10 | 43.18407 | 0.00294 | 1206 ft | 12 kts | 277° |
| 2026-04-24 12:10 | 43.18424 | 0.00191 | 1207 ft | 8 kts | 286° |
| 2026-04-24 12:11 | 43.18374 | 0.00083 | 1206 ft | 9 kts | 209° |
| 2026-04-24 12:11 | 43.18314 | 0.00037 | 1208 ft | 10 kts | 209° |
| 2026-04-24 12:11 | 43.18253 | -0.00010 | 1203 ft | 11 kts | 209° |
| 2026-04-24 12:11 | 43.18165 | -0.00077 | 1207 ft | 19 kts | 209° |
| 2026-04-24 12:12 | 43.18087 | -0.00136 | 1209 ft | 19 kts | 209° |
| 2026-04-24 12:12 | 43.17934 | -0.00252 | 1214 ft | 18 kts | 209° |
| 2026-04-24 12:12 | 43.17824 | -0.00336 | 1217 ft | 18 kts | 209° |
| 2026-04-24 12:12 | 43.17754 | -0.00390 | 1219 ft | 17 kts | 209° |
| 2026-04-24 12:13 | 43.17649 | -0.00467 | 1222 ft | 17 kts | 206° |
| 2026-04-24 12:13 | 43.17527 | -0.00540 | 1226 ft | 21 kts | 200° |
| 2026-04-24 12:13 | 43.17392 | -0.00608 | 1231 ft | 20 kts | 200° |
| 2026-04-24 12:13 | 43.17260 | -0.00675 | 1234 ft | 20 kts | 200° |
| 2026-04-24 12:14 | 43.17136 | -0.00738 | 1243 ft | 13 kts | 200° |
| 2026-04-24 12:14 | 43.17070 | -0.00805 | 1252 ft | 12 kts | 252° |
| 2026-04-24 12:14 | 43.17087 | -0.00916 | 1246 ft | 12 kts | 291° |
| 2026-04-24 12:14 | 43.17121 | -0.00997 | 1250 ft | 9 kts | 330° |
| 2026-04-24 12:15 | 43.17165 | -0.00989 | 1255 ft | 0 kts | 21° |
| 2026-04-24 12:16 | 43.17168 | -0.00987 | 1253 ft | 2 kts | 21° |
| 2026-04-24 12:16 | 43.17314 | -0.00913 | 1236 ft | 56 kts | 20° |
| 2026-04-24 12:17 | 43.17902 | -0.00613 | 1217 ft | 121 kts | 20° |
| 2026-04-24 12:17 | 43.18831 | -0.00157 | 1376 ft | 153 kts | 20° |
| 2026-04-24 12:17 | 43.19847 | 0.00357 | 1971 ft | 159 kts | 18° |
| 2026-04-24 12:17 | 43.20912 | 0.00904 | 2506 ft | 172 kts | 20° |
| 2026-04-24 12:18 | 43.22131 | 0.01556 | 2729 ft | 204 kts | 21° |
| 2026-04-24 12:18 | 43.23538 | 0.02276 | 2926 ft | 228 kts | 19° |
| 2026-04-24 12:18 | 43.25105 | 0.03067 | 3227 ft | 251 kts | 21° |
| 2026-04-24 12:18 | 43.26757 | 0.04066 | 3815 ft | 262 kts | 24° |